Time,TemperatureF,DewpointF,PressureIn,WindDirection,WindDirectionDegrees,WindSpeedMPH,WindSpeedGustMPH,Humidity,HourlyPrecipIn,Conditions,Clouds,dailyrainin,SoftwareType,DateUTC
2013-04-20 00:01:00,52.2,45.9,29.89,East,90,1.6,4.0,79,0.00,,,0.00,WUHU216HW,2013-04-20 07:01:00,
2013-04-20 00:06:00,52.2,46.3,29.89,ENE,68,2.5,4.0,80,0.00,,,0.00,WUHU216HW,2013-04-20 07:06:00,
2013-04-20 00:11:00,52.0,45.7,29.89,SE,135,0.4,2.7,79,0.00,,,0.00,WUHU216HW,2013-04-20 07:11:00,
2013-04-20 00:16:00,51.8,45.5,29.89,East,90,1.6,2.7,79,0.00,,,0.00,WUHU216HW,2013-04-20 07:16:00,
2013-04-20 00:21:00,51.8,45.2,29.90,SSE,158,0.7,1.6,78,0.00,,,0.00,WUHU216HW,2013-04-20 07:21:00,
2013-04-20 00:26:00,51.8,45.2,29.90,SE,135,0.9,1.1,78,0.00,,,0.00,WUHU216HW,2013-04-20 07:26:00,
2013-04-20 00:31:00,51.8,45.5,29.90,East,90,1.6,1.8,79,0.00,,,0.00,WUHU216HW,2013-04-20 07:31:00,
2013-04-20 00:36:00,51.8,45.9,29.90,East,90,1.6,1.8,80,0.00,,,0.00,WUHU216HW,2013-04-20 07:36:00,
2013-04-20 00:41:00,51.7,45.7,29.90,East,90,1.1,1.8,80,0.00,,,0.00,WUHU216HW,2013-04-20 07:41:00,
2013-04-20 00:46:00,51.8,45.9,29.91,SE,135,0.4,1.8,80,0.00,,,0.00,WUHU216HW,2013-04-20 07:46:00,
2013-04-20 00:51:00,51.8,45.9,29.91,SSE,158,1.6,2.0,80,0.00,,,0.00,WUHU216HW,2013-04-20 07:51:00,
2013-04-20 00:56:00,51.7,45.7,29.91,SE,135,1.3,2.5,80,0.00,,,0.00,WUHU216HW,2013-04-20 07:56:00,
2013-04-20 01:01:00,51.7,45.7,29.91,ESE,113,1.3,2.7,80,0.00,,,0.00,WUHU216HW,2013-04-20 08:01:00,
2013-04-20 01:06:00,51.5,45.5,29.91,SE,135,1.3,2.7,80,0.00,,,0.00,WUHU216HW,2013-04-20 08:06:00,
2013-04-20 01:11:00,51.5,46.2,29.91,East,90,2.2,2.2,82,0.00,,,0.00,WUHU216HW,2013-04-20 08:11:00,
2013-04-20 01:16:00,51.3,45.6,29.91,East,90,1.1,2.2,81,0.00,,,0.00,WUHU216HW,2013-04-20 08:16:00,
2013-04-20 01:21:00,51.3,46.0,29.91,East,90,0.9,2.2,82,0.00,,,0.00,WUHU216HW,2013-04-20 08:21:00,
2013-04-20 01:26:00,51.1,46.1,29.90,East,90,2.5,2.5,83,0.00,,,0.00,WUHU216HW,2013-04-20 08:26:00,
2013-04-20 01:31:00,51.1,46.7,29.90,East,90,2.0,2.5,85,0.00,,,0.00,WUHU216HW,2013-04-20 08:31:00,
2013-04-20 01:36:00,51.1,47.0,29.90,ESE,113,3.1,3.1,86,0.00,,,0.00,WUHU216HW,2013-04-20 08:36:00,
2013-04-20 01:41:00,50.9,46.8,29.90,East,90,2.7,3.4,86,0.00,,,0.00,WUHU216HW,2013-04-20 08:41:00,
2013-04-20 01:46:00,50.8,46.6,29.90,East,90,2.5,3.4,86,0.00,,,0.00,WUHU216HW,2013-04-20 08:46:00,
2013-04-20 01:51:00,50.8,46.6,29.90,East,90,2.5,3.1,86,0.00,,,0.00,WUHU216HW,2013-04-20 08:51:00,
2013-04-20 01:56:00,50.6,46.4,29.90,ESE,113,2.5,2.7,86,0.00,,,0.00,WUHU216HW,2013-04-20 08:56:00,
2013-04-20 02:01:00,50.6,46.4,29.90,ESE,113,2.0,2.7,86,0.00,,,0.00,WUHU216HW,2013-04-20 09:01:00,
2013-04-20 02:06:00,50.6,46.2,29.90,East,90,0.7,2.0,85,0.00,,,0.00,WUHU216HW,2013-04-20 09:06:00,
2013-04-20 02:11:00,50.4,46.0,29.89,SSE,158,2.5,2.5,85,0.00,,,0.00,WUHU216HW,2013-04-20 09:11:00,
2013-04-20 02:16:00,50.4,45.7,29.90,East,90,1.1,2.5,84,0.00,,,0.00,WUHU216HW,2013-04-20 09:16:00,
2013-04-20 02:21:00,50.4,45.7,29.90,East,90,0.4,1.1,84,0.00,,,0.00,WUHU216HW,2013-04-20 09:21:00,
2013-04-20 02:26:00,50.4,45.7,29.90,ENE,68,1.8,1.8,84,0.00,,,0.00,WUHU216HW,2013-04-20 09:26:00,
2013-04-20 02:31:00,50.4,46.3,29.90,East,90,1.8,2.0,86,0.00,,,0.00,WUHU216HW,2013-04-20 09:31:00,
2013-04-20 02:36:00,50.4,46.3,29.90,ENE,68,2.7,3.1,86,0.00,,,0.00,WUHU216HW,2013-04-20 09:36:00,
2013-04-20 02:41:00,50.2,46.5,29.90,East,90,1.8,3.1,87,0.00,,,0.00,WUHU216HW,2013-04-20 09:41:00,
2013-04-20 02:46:00,50.0,46.3,29.89,East,90,2.5,2.9,87,0.00,,,0.00,WUHU216HW,2013-04-20 09:46:00,
2013-04-20 02:51:00,50.0,46.3,29.89,East,90,3.4,3.4,87,0.00,,,0.00,WUHU216HW,2013-04-20 09:51:00,
2013-04-20 02:56:00,49.7,45.9,29.90,East,90,3.1,3.4,87,0.00,,,0.00,WUHU216HW,2013-04-20 09:56:00,
2013-04-20 03:01:00,49.7,46.3,29.89,ENE,68,1.1,4.7,88,0.00,,,0.00,WUHU216HW,2013-04-20 10:01:00,
2013-04-20 03:06:00,49.5,45.7,29.89,ENE,68,2.9,4.7,87,0.00,,,0.00,WUHU216HW,2013-04-20 10:06:00,
2013-04-20 03:11:00,49.5,46.1,29.89,East,90,1.8,2.9,88,0.00,,,0.00,WUHU216HW,2013-04-20 10:11:00,
2013-04-20 03:16:00,49.3,45.9,29.89,East,90,2.0,2.9,88,0.00,,,0.00,WUHU216HW,2013-04-20 10:16:00,
2013-04-20 03:21:00,49.3,46.2,29.89,East,90,2.5,3.4,89,0.00,,,0.00,WUHU216HW,2013-04-20 10:21:00,
2013-04-20 03:26:00,49.3,46.2,29.89,ESE,113,2.5,3.4,89,0.00,,,0.00,WUHU216HW,2013-04-20 10:26:00,
2013-04-20 03:31:00,49.1,45.7,29.89,ESE,113,1.6,3.4,88,0.00,,,0.00,WUHU216HW,2013-04-20 10:31:00,
2013-04-20 03:36:00,49.1,45.7,29.89,ESE,113,1.3,3.4,88,0.00,,,0.00,WUHU216HW,2013-04-20 10:36:00,
2013-04-20 03:41:00,49.1,45.7,29.89,ESE,113,0.4,2.5,88,0.00,,,0.00,WUHU216HW,2013-04-20 10:41:00,
2013-04-20 03:46:00,49.1,45.7,29.89,SE,135,0.4,2.5,88,0.00,,,0.00,WUHU216HW,2013-04-20 10:46:00,
2013-04-20 03:51:00,49.1,45.4,29.89,ESE,113,1.1,2.5,87,0.00,,,0.00,WUHU216HW,2013-04-20 10:51:00,
2013-04-20 03:56:00,49.3,45.5,29.89,East,90,0.4,1.1,87,0.00,,,0.00,WUHU216HW,2013-04-20 10:56:00,
2013-04-20 04:01:00,49.3,45.5,29.89,East,90,1.1,1.1,87,0.00,,,0.00,WUHU216HW,2013-04-20 11:01:00,
2013-04-20 04:06:00,49.3,45.5,29.89,East,90,0.2,1.1,87,0.00,,,0.00,WUHU216HW,2013-04-20 11:06:00,
2013-04-20 04:11:00,49.5,45.7,29.90,East,90,0.4,1.1,87,0.00,,,0.00,WUHU216HW,2013-04-20 11:11:00,
2013-04-20 04:16:00,49.5,46.1,29.89,East,90,0.9,2.0,88,0.00,,,0.00,WUHU216HW,2013-04-20 11:16:00,
2013-04-20 04:21:00,49.7,46.3,29.89,East,90,1.8,2.0,88,0.00,,,0.00,WUHU216HW,2013-04-20 11:21:00,
2013-04-20 04:26:00,49.9,46.7,29.89,East,90,4.0,4.0,89,0.00,,,0.00,WUHU216HW,2013-04-20 11:26:00,
2013-04-20 04:31:00,49.7,46.8,29.89,East,90,1.3,4.0,90,0.00,,,0.00,WUHU216HW,2013-04-20 11:31:00,
2013-04-20 04:36:00,49.7,46.8,29.89,East,90,2.0,3.1,90,0.00,,,0.00,WUHU216HW,2013-04-20 11:36:00,
2013-04-20 04:41:00,49.7,46.5,29.88,NE,45,1.8,3.1,89,0.00,,,0.00,WUHU216HW,2013-04-20 11:41:00,
2013-04-20 04:46:00,49.7,46.8,29.89,ENE,68,2.9,2.9,90,0.00,,,0.00,WUHU216HW,2013-04-20 11:46:00,
2013-04-20 04:51:00,49.7,46.8,29.89,East,90,2.2,2.9,90,0.00,,,0.00,WUHU216HW,2013-04-20 11:51:00,
2013-04-20 04:56:00,49.9,47.0,29.89,East,90,1.6,2.7,90,0.00,,,0.00,WUHU216HW,2013-04-20 11:56:00,
2013-04-20 05:01:00,49.9,46.7,29.89,East,90,0.9,1.8,89,0.00,,,0.00,WUHU216HW,2013-04-20 12:01:00,
2013-04-20 05:06:00,49.9,47.0,29.89,ESE,113,1.8,2.5,90,0.00,,,0.00,WUHU216HW,2013-04-20 12:06:00,
2013-04-20 05:11:00,50.0,47.2,29.88,ESE,113,1.1,2.5,90,0.00,,,0.00,WUHU216HW,2013-04-20 12:11:00,
2013-04-20 05:16:00,50.0,46.9,29.88,SE,135,1.6,2.5,89,0.00,,,0.00,WUHU216HW,2013-04-20 12:16:00,
2013-04-20 05:21:00,50.0,46.9,29.88,South,180,0.9,2.5,89,0.00,,,0.00,WUHU216HW,2013-04-20 12:21:00,
2013-04-20 05:26:00,50.0,46.5,29.88,SSE,158,0.0,1.6,88,0.00,,,0.00,WUHU216HW,2013-04-20 12:26:00,
2013-04-20 05:31:00,50.0,46.5,29.88,SSW,203,0.4,1.8,88,0.00,,,0.00,WUHU216HW,2013-04-20 12:31:00,
2013-04-20 05:36:00,50.2,46.7,29.88,SSW,203,0.0,1.8,88,0.00,,,0.00,WUHU216HW,2013-04-20 12:36:00,
2013-04-20 05:41:00,50.4,46.9,29.88,SSW,203,0.7,0.7,88,0.00,,,0.00,WUHU216HW,2013-04-20 12:41:00,
2013-04-20 05:46:00,50.6,47.1,29.88,SSW,203,0.0,0.7,88,0.00,,,0.00,WUHU216HW,2013-04-20 12:46:00,
2013-04-20 05:51:00,50.8,47.6,29.88,SSW,203,0.0,0.2,89,0.00,,,0.00,WUHU216HW,2013-04-20 12:51:00,
2013-04-20 05:56:00,51.1,48.0,29.88,SSW,203,0.4,0.4,89,0.00,,,0.00,WUHU216HW,2013-04-20 12:56:00,
2013-04-20 06:06:00,51.1,48.0,29.88,West,270,1.3,1.3,89,0.00,,,0.00,WUHU216HW,2013-04-20 13:06:00,
2013-04-20 06:11:00,51.5,48.0,29.88,NW,315,0.0,0.7,88,0.00,,,0.00,WUHU216HW,2013-04-20 13:11:00,
2013-04-20 06:16:00,51.3,47.5,29.88,NW,315,0.4,1.1,87,0.00,,,0.00,WUHU216HW,2013-04-20 13:16:00,
2013-04-20 06:21:00,50.9,47.2,29.88,NW,315,0.0,1.1,87,0.00,,,0.00,WUHU216HW,2013-04-20 13:21:00,
2013-04-20 06:26:00,50.8,47.0,29.88,NW,315,0.4,0.9,87,0.00,,,0.00,WUHU216HW,2013-04-20 13:26:00,
2013-04-20 06:31:00,50.8,47.0,29.88,NW,315,0.2,0.7,87,0.00,,,0.00,WUHU216HW,2013-04-20 13:31:00,
2013-04-20 06:36:00,50.8,47.0,29.88,West,270,0.0,0.4,87,0.00,,,0.00,WUHU216HW,2013-04-20 13:36:00,
2013-04-20 06:41:00,50.8,46.6,29.88,WNW,293,0.0,0.4,86,0.00,,,0.00,WUHU216HW,2013-04-20 13:41:00,
2013-04-20 06:46:00,50.9,46.8,29.88,WNW,293,0.0,0.0,86,0.00,,,0.00,WUHU216HW,2013-04-20 13:46:00,
2013-04-20 06:51:00,50.9,46.8,29.88,WNW,293,0.0,0.4,86,0.00,,,0.00,WUHU216HW,2013-04-20 13:51:00,
2013-04-20 06:56:00,50.9,46.8,29.88,NW,315,0.4,0.7,86,0.00,,,0.00,WUHU216HW,2013-04-20 13:56:00,
2013-04-20 07:01:00,51.3,47.2,29.88,NW,315,0.0,0.7,86,0.00,,,0.00,WUHU216HW,2013-04-20 14:01:00,
2013-04-20 07:06:00,51.5,47.3,29.88,NW,315,0.9,0.9,86,0.00,,,0.00,WUHU216HW,2013-04-20 14:06:00,
2013-04-20 07:11:00,51.7,47.5,29.88,NW,315,0.0,0.9,86,0.00,,,0.00,WUHU216HW,2013-04-20 14:11:00,
2013-04-20 07:16:00,52.0,47.9,29.88,NW,315,0.0,0.2,86,0.00,,,0.00,WUHU216HW,2013-04-20 14:16:00,
2013-04-20 07:21:00,52.6,48.4,29.88,NW,315,0.2,0.2,86,0.00,,,0.00,WUHU216HW,2013-04-20 14:21:00,
2013-04-20 07:26:00,52.9,48.8,29.88,NW,315,0.0,0.4,86,0.00,,,0.00,WUHU216HW,2013-04-20 14:26:00,
2013-04-20 07:31:00,53.6,49.2,29.88,NW,315,0.0,0.4,85,0.00,,,0.00,WUHU216HW,2013-04-20 14:31:00,
2013-04-20 07:36:00,54.7,50.0,29.88,East,90,0.7,0.7,84,0.00,,,0.00,WUHU216HW,2013-04-20 14:36:00,
2013-04-20 07:41:00,55.8,50.7,29.88,ESE,113,0.4,1.1,83,0.00,,,0.00,WUHU216HW,2013-04-20 14:41:00,
2013-04-20 07:46:00,56.5,51.4,29.87,ESE,113,0.0,1.1,83,0.00,,,0.00,WUHU216HW,2013-04-20 14:46:00,
2013-04-20 07:51:00,57.4,51.7,29.87,ESE,113,0.0,0.9,81,0.00,,,0.00,WUHU216HW,2013-04-20 14:51:00,
2013-04-20 07:56:00,58.5,52.8,29.87,SSE,158,0.4,1.8,81,0.00,,,0.00,WUHU216HW,2013-04-20 14:56:00,
2013-04-20 08:01:00,59.8,53.3,29.87,SE,135,0.4,2.5,79,0.00,,,0.00,WUHU216HW,2013-04-20 15:01:00,
2013-04-20 08:06:00,60.7,53.8,29.87,West,270,0.4,2.5,78,0.00,,,0.00,WUHU216HW,2013-04-20 15:06:00,
2013-04-20 08:11:00,61.2,54.0,29.87,SSE,158,0.4,0.4,77,0.00,,,0.00,WUHU216HW,2013-04-20 15:11:00,
2013-04-20 08:16:00,61.9,53.9,29.87,ESE,113,1.1,1.1,75,0.00,,,0.00,WUHU216HW,2013-04-20 15:16:00,
2013-04-20 08:21:00,63.2,55.1,29.87,SE,135,0.4,1.1,75,0.00,,,0.00,WUHU216HW,2013-04-20 15:21:00,
2013-04-20 08:26:00,64.1,55.6,29.87,SE,135,0.0,1.6,74,0.00,,,0.00,WUHU216HW,2013-04-20 15:26:00,
2013-04-20 08:31:00,64.8,55.6,29.87,SE,135,0.9,3.6,72,0.00,,,0.00,WUHU216HW,2013-04-20 15:31:00,
2013-04-20 08:36:00,65.5,55.9,29.87,SE,135,3.8,3.8,71,0.00,,,0.00,WUHU216HW,2013-04-20 15:36:00,
2013-04-20 08:41:00,66.2,56.2,29.87,SSE,158,2.2,3.8,70,0.00,,,0.00,WUHU216HW,2013-04-20 15:41:00,
2013-04-20 08:46:00,67.0,56.1,29.87,SSE,158,3.4,3.4,68,0.00,,,0.00,WUHU216HW,2013-04-20 15:46:00,
2013-04-20 08:51:00,67.3,56.4,29.87,SSW,203,0.9,4.0,68,0.00,,,0.00,WUHU216HW,2013-04-20 15:51:00,
2013-04-20 08:56:00,67.9,56.5,29.87,SSW,203,0.7,4.0,67,0.00,,,0.00,WUHU216HW,2013-04-20 15:56:00,
2013-04-20 09:01:00,68.6,56.4,29.87,SW,225,0.4,1.8,65,0.00,,,0.00,WUHU216HW,2013-04-20 16:01:00,
2013-04-20 09:06:00,69.1,56.8,29.87,WSW,248,2.5,2.5,65,0.00,,,0.00,WUHU216HW,2013-04-20 16:06:00,
2013-04-20 09:11:00,69.7,56.9,29.87,West,270,0.4,2.5,64,0.00,,,0.00,WUHU216HW,2013-04-20 16:11:00,
2013-04-20 09:16:00,70.6,57.3,29.86,West,270,0.7,2.2,63,0.00,,,0.00,WUHU216HW,2013-04-20 16:16:00,
2013-04-20 09:21:00,71.5,58.2,29.87,West,270,2.7,2.7,63,0.00,,,0.00,WUHU216HW,2013-04-20 16:21:00,
2013-04-20 09:26:00,72.0,57.4,29.87,West,270,3.4,3.4,60,0.00,,,0.00,WUHU216HW,2013-04-20 16:26:00,
2013-04-20 09:31:00,71.8,57.3,29.87,West,270,4.0,4.7,60,0.00,,,0.00,WUHU216HW,2013-04-20 16:31:00,
2013-04-20 09:36:00,71.3,55.7,29.87,West,270,6.3,6.3,58,0.00,,,0.00,WUHU216HW,2013-04-20 16:36:00,
2013-04-20 09:41:00,71.1,56.1,29.87,West,270,2.9,6.3,59,0.00,,,0.00,WUHU216HW,2013-04-20 16:41:00,
2013-04-20 09:46:00,71.1,55.1,29.87,WNW,293,6.3,6.3,57,0.00,,,0.00,WUHU216HW,2013-04-20 16:46:00,
2013-04-20 09:51:00,70.2,54.3,29.87,WSW,248,7.8,8.5,57,0.00,,,0.00,WUHU216HW,2013-04-20 16:51:00,
2013-04-20 09:56:00,69.8,53.9,29.87,NW,315,7.6,8.5,57,0.00,,,0.00,WUHU216HW,2013-04-20 16:56:00,
2013-04-20 10:01:00,68.9,53.6,29.87,NW,315,6.5,8.5,58,0.00,,,0.00,WUHU216HW,2013-04-20 17:01:00,
2013-04-20 10:06:00,68.8,53.9,29.87,NW,315,8.9,9.2,59,0.00,,,0.00,WUHU216HW,2013-04-20 17:06:00,
2013-04-20 10:11:00,67.3,53.0,29.87,NNW,338,6.0,11.2,60,0.00,,,0.00,WUHU216HW,2013-04-20 17:11:00,
2013-04-20 10:16:00,66.2,53.3,29.87,WSW,248,4.0,11.2,63,0.00,,,0.00,WUHU216HW,2013-04-20 17:16:00,
2013-04-20 10:21:00,67.0,53.6,29.87,NW,315,9.8,10.5,62,0.00,,,0.00,WUHU216HW,2013-04-20 17:21:00,
2013-04-20 10:26:00,67.3,53.5,29.87,WSW,248,7.4,9.8,61,0.00,,,0.00,WUHU216HW,2013-04-20 17:26:00,
2013-04-20 10:31:00,67.5,53.2,29.87,NNW,338,8.9,10.1,60,0.00,,,0.00,WUHU216HW,2013-04-20 17:31:00,
2013-04-20 10:36:00,67.3,53.0,29.87,WSW,248,8.1,10.5,60,0.00,,,0.00,WUHU216HW,2013-04-20 17:36:00,
2013-04-20 10:41:00,67.7,53.3,29.87,WNW,293,6.3,10.5,60,0.00,,,0.00,WUHU216HW,2013-04-20 17:41:00,
2013-04-20 10:46:00,67.7,52.8,29.87,West,270,6.0,10.1,59,0.00,,,0.00,WUHU216HW,2013-04-20 17:46:00,
2013-04-20 10:51:00,67.7,53.3,29.87,West,270,9.2,10.1,60,0.00,,,0.00,WUHU216HW,2013-04-20 17:51:00,
2013-04-20 10:56:00,67.9,53.0,29.87,WNW,293,10.3,11.6,59,0.00,,,0.00,WUHU216HW,2013-04-20 17:56:00,
2013-04-20 11:01:00,67.0,52.7,29.87,West,270,10.7,11.6,60,0.00,,,0.00,WUHU216HW,2013-04-20 18:01:00,
2013-04-20 11:06:00,66.8,52.5,29.87,West,270,11.6,11.6,60,0.00,,,0.00,WUHU216HW,2013-04-20 18:06:00,
2013-04-20 11:11:00,66.6,52.4,29.86,WNW,293,10.7,12.1,60,0.00,,,0.00,WUHU216HW,2013-04-20 18:11:00,
2013-04-20 11:16:00,67.3,53.0,29.86,NW,315,12.1,12.1,60,0.00,,,0.00,WUHU216HW,2013-04-20 18:16:00,
2013-04-20 11:21:00,68.2,52.8,29.87,WNW,293,8.1,12.1,58,0.00,,,0.00,WUHU216HW,2013-04-20 18:21:00,
2013-04-20 11:26:00,69.3,53.9,29.86,WNW,293,9.4,9.6,58,0.00,,,0.00,WUHU216HW,2013-04-20 18:26:00,
2013-04-20 11:31:00,70.7,54.7,29.86,WNW,293,7.4,10.7,57,0.00,,,0.00,WUHU216HW,2013-04-20 18:31:00,
2013-04-20 11:36:00,71.6,54.5,29.86,WNW,293,6.9,10.7,55,0.00,,,0.00,WUHU216HW,2013-04-20 18:36:00,
2013-04-20 11:41:00,71.6,54.0,29.86,WNW,293,8.5,9.4,54,0.00,,,0.00,WUHU216HW,2013-04-20 18:41:00,
2013-04-20 11:46:00,71.1,53.6,29.86,WNW,293,8.3,10.3,54,0.00,,,0.00,WUHU216HW,2013-04-20 18:46:00,
2013-04-20 11:51:00,71.6,54.0,29.85,WNW,293,9.8,10.3,54,0.00,,,0.00,WUHU216HW,2013-04-20 18:51:00,
2013-04-20 11:56:00,72.2,53.6,29.85,WNW,293,9.6,10.1,52,0.00,,,0.00,WUHU216HW,2013-04-20 18:56:00,
2013-04-20 12:01:00,71.8,54.2,29.85,West,270,6.3,9.8,54,0.00,,,0.00,WUHU216HW,2013-04-20 19:01:00,
2013-04-20 12:06:00,72.4,54.2,29.85,WNW,293,6.9,9.4,53,0.00,,,0.00,WUHU216HW,2013-04-20 19:06:00,
2013-04-20 12:11:00,73.4,54.6,29.85,WNW,293,9.8,10.3,52,0.00,,,0.00,WUHU216HW,2013-04-20 19:11:00,
2013-04-20 12:16:00,74.0,54.2,29.84,NW,315,8.3,10.3,50,0.00,,,0.00,WUHU216HW,2013-04-20 19:16:00,
2013-04-20 12:21:00,73.6,54.4,29.85,West,270,11.4,11.4,51,0.00,,,0.00,WUHU216HW,2013-04-20 19:21:00,
2013-04-20 12:26:00,73.6,53.2,29.84,West,270,8.1,11.4,49,0.00,,,0.00,WUHU216HW,2013-04-20 19:26:00,
2013-04-20 12:31:00,73.6,53.8,29.84,West,270,8.5,11.4,50,0.00,,,0.00,WUHU216HW,2013-04-20 19:31:00,
2013-04-20 12:36:00,73.3,53.5,29.84,SW,225,9.2,10.3,50,0.00,,,0.00,WUHU216HW,2013-04-20 19:36:00,
2013-04-20 12:41:00,73.1,52.8,29.84,West,270,9.4,11.9,49,0.00,,,0.00,WUHU216HW,2013-04-20 19:41:00,
2013-04-20 12:46:00,72.9,53.6,29.84,West,270,8.1,11.9,51,0.00,,,0.00,WUHU216HW,2013-04-20 19:46:00,
2013-04-20 12:51:00,73.1,52.8,29.84,West,270,9.8,11.6,49,0.00,,,0.00,WUHU216HW,2013-04-20 19:51:00,
2013-04-20 12:56:00,73.1,52.8,29.83,NNW,338,8.1,11.6,49,0.00,,,0.00,WUHU216HW,2013-04-20 19:56:00,
2013-04-20 13:01:00,72.7,52.4,29.83,WNW,293,11.4,11.4,49,0.00,,,0.00,WUHU216HW,2013-04-20 20:01:00,
2013-04-20 13:06:00,73.6,53.8,29.83,WSW,248,8.3,11.4,50,0.00,,,0.00,WUHU216HW,2013-04-20 20:06:00,
2013-04-20 13:11:00,74.2,53.2,29.83,West,270,7.2,11.9,48,0.00,,,0.00,WUHU216HW,2013-04-20 20:11:00,
2013-04-20 13:16:00,74.3,52.8,29.83,WNW,293,7.6,12.8,47,0.00,,,0.00,WUHU216HW,2013-04-20 20:16:00,
2013-04-20 13:21:00,74.2,52.6,29.83,WNW,293,6.5,12.8,47,0.00,,,0.00,WUHU216HW,2013-04-20 20:21:00,
2013-04-20 13:26:00,73.6,52.0,29.83,West,270,11.0,11.9,47,0.00,,,0.00,WUHU216HW,2013-04-20 20:26:00,
2013-04-20 13:31:00,73.1,51.6,29.82,NW,315,11.9,11.9,47,0.00,,,0.00,WUHU216HW,2013-04-20 20:31:00,
2013-04-20 13:36:00,72.7,51.9,29.83,West,270,8.7,12.8,48,0.00,,,0.00,WUHU216HW,2013-04-20 20:36:00,
2013-04-20 13:41:00,72.2,51.9,29.82,WSW,248,8.5,12.8,49,0.00,,,0.00,WUHU216HW,2013-04-20 20:41:00,
2013-04-20 13:46:00,72.2,51.9,29.83,West,270,7.6,12.1,49,0.00,,,0.00,WUHU216HW,2013-04-20 20:46:00,
2013-04-20 13:51:00,72.4,51.5,29.83,West,270,11.0,15.0,48,0.00,,,0.00,WUHU216HW,2013-04-20 20:51:00,
2013-04-20 13:56:00,71.6,51.4,29.83,West,270,6.9,15.0,49,0.00,,,0.00,WUHU216HW,2013-04-20 20:56:00,
2013-04-20 14:01:00,71.6,51.4,29.83,NW,315,9.8,13.4,49,0.00,,,0.00,WUHU216HW,2013-04-20 21:01:00,
2013-04-20 14:06:00,71.8,51.6,29.83,WNW,293,11.4,13.6,49,0.00,,,0.00,WUHU216HW,2013-04-20 21:06:00,
2013-04-20 14:11:00,71.3,51.7,29.83,WNW,293,9.2,13.6,50,0.00,,,0.00,WUHU216HW,2013-04-20 21:11:00,
2013-04-20 14:16:00,71.1,51.6,29.83,NW,315,6.9,12.3,50,0.00,,,0.00,WUHU216HW,2013-04-20 21:16:00,
2013-04-20 14:21:00,71.1,51.6,29.82,West,270,9.2,13.0,50,0.00,,,0.00,WUHU216HW,2013-04-20 21:21:00,
2013-04-20 14:26:00,71.3,52.2,29.83,NW,315,10.1,13.0,51,0.00,,,0.00,WUHU216HW,2013-04-20 21:26:00,
2013-04-20 14:31:00,70.6,52.6,29.82,WSW,248,8.7,12.3,53,0.00,,,0.00,WUHU216HW,2013-04-20 21:31:00,
2013-04-20 14:36:00,69.8,51.9,29.82,WNW,293,11.2,12.3,53,0.00,,,0.00,WUHU216HW,2013-04-20 21:36:00,
2013-04-20 14:41:00,69.1,51.2,29.82,WSW,248,8.5,13.9,53,0.00,,,0.00,WUHU216HW,2013-04-20 21:41:00,
2013-04-20 14:46:00,69.5,52.6,29.82,West,270,6.7,13.9,55,0.00,,,0.00,WUHU216HW,2013-04-20 21:46:00,
2013-04-20 14:51:00,70.2,52.7,29.82,WNW,293,11.4,12.8,54,0.00,,,0.00,WUHU216HW,2013-04-20 21:51:00,
2013-04-20 14:56:00,70.6,52.6,29.82,SW,225,9.6,11.4,53,0.00,,,0.00,WUHU216HW,2013-04-20 21:56:00,
2013-04-20 15:01:00,70.4,52.9,29.82,NW,315,3.8,11.2,54,0.00,,,0.00,WUHU216HW,2013-04-20 22:01:00,
2013-04-20 15:06:00,70.6,53.1,29.82,WNW,293,8.5,9.8,54,0.00,,,0.00,WUHU216HW,2013-04-20 22:06:00,
2013-04-20 15:11:00,70.7,53.2,29.82,WNW,293,6.3,9.8,54,0.00,,,0.00,WUHU216HW,2013-04-20 22:11:00,
2013-04-20 15:16:00,70.9,52.9,29.82,WSW,248,9.4,10.7,53,0.00,,,0.00,WUHU216HW,2013-04-20 22:16:00,
2013-04-20 15:21:00,70.9,53.4,29.82,NNW,338,6.3,10.7,54,0.00,,,0.00,WUHU216HW,2013-04-20 22:21:00,
2013-04-20 15:26:00,71.3,53.7,29.82,WSW,248,8.7,8.7,54,0.00,,,0.00,WUHU216HW,2013-04-20 22:26:00,
2013-04-20 15:31:00,71.5,53.4,29.82,West,270,3.1,8.7,53,0.00,,,0.00,WUHU216HW,2013-04-20 22:31:00,
2013-04-20 15:36:00,71.5,53.4,29.82,WNW,293,4.3,8.3,53,0.00,,,0.00,WUHU216HW,2013-04-20 22:36:00,
2013-04-20 15:41:00,71.6,53.6,29.82,WNW,293,6.0,8.3,53,0.00,,,0.00,WUHU216HW,2013-04-20 22:41:00,
2013-04-20 15:46:00,71.6,53.0,29.82,WNW,293,6.7,7.2,52,0.00,,,0.00,WUHU216HW,2013-04-20 22:46:00,
2013-04-20 15:51:00,71.3,53.2,29.82,WNW,293,3.1,6.7,53,0.00,,,0.00,WUHU216HW,2013-04-20 22:51:00,
2013-04-20 15:56:00,71.1,53.0,29.82,WNW,293,2.9,6.3,53,0.00,,,0.00,WUHU216HW,2013-04-20 22:56:00,
2013-04-20 16:01:00,71.3,53.2,29.82,West,270,5.4,6.3,53,0.00,,,0.00,WUHU216HW,2013-04-20 23:01:00,
2013-04-20 16:06:00,71.3,53.2,29.82,WNW,293,4.3,5.6,53,0.00,,,0.00,WUHU216HW,2013-04-20 23:06:00,
2013-04-20 16:11:00,71.3,53.2,29.82,WSW,248,6.3,6.3,53,0.00,,,0.00,WUHU216HW,2013-04-20 23:11:00,
2013-04-20 16:16:00,70.9,52.9,29.82,WNW,293,1.3,6.3,53,0.00,,,0.00,WUHU216HW,2013-04-20 23:16:00,
2013-04-20 16:21:00,71.6,53.6,29.82,WSW,248,6.9,6.9,53,0.00,,,0.00,WUHU216HW,2013-04-20 23:21:00,
2013-04-20 16:26:00,71.8,53.2,29.82,WSW,248,6.7,7.4,52,0.00,,,0.00,WUHU216HW,2013-04-20 23:26:00,
2013-04-20 16:31:00,71.3,53.2,29.82,SSW,203,4.0,7.4,53,0.00,,,0.00,WUHU216HW,2013-04-20 23:31:00,
2013-04-20 16:36:00,71.3,52.8,29.82,WSW,248,0.9,6.3,52,0.00,,,0.00,WUHU216HW,2013-04-20 23:36:00,
2013-04-20 16:41:00,71.3,52.8,29.82,West,270,2.7,7.6,52,0.00,,,0.00,WUHU216HW,2013-04-20 23:41:00,
2013-04-20 16:46:00,70.9,52.4,29.82,SE,135,4.0,7.6,52,0.00,,,0.00,WUHU216HW,2013-04-20 23:46:00,
2013-04-20 16:51:00,70.9,52.4,29.82,WSW,248,2.9,5.6,52,0.00,,,0.00,WUHU216HW,2013-04-20 23:51:00,
2013-04-20 16:56:00,70.9,52.9,29.82,South,180,4.7,6.9,53,0.00,,,0.00,WUHU216HW,2013-04-20 23:56:00,
2013-04-20 17:01:00,70.9,52.4,29.82,SW,225,6.3,7.4,52,0.00,,,0.00,WUHU216HW,2013-04-21 00:01:00,
2013-04-20 17:06:00,70.9,52.9,29.82,West,270,5.4,7.4,53,0.00,,,0.00,WUHU216HW,2013-04-21 00:06:00,
2013-04-20 17:11:00,71.3,53.2,29.82,SSW,203,4.0,5.4,53,0.00,,,0.00,WUHU216HW,2013-04-21 00:11:00,
2013-04-20 17:16:00,71.3,52.8,29.82,South,180,4.0,4.7,52,0.00,,,0.00,WUHU216HW,2013-04-21 00:16:00,
2013-04-20 17:21:00,71.5,52.8,29.82,South,180,4.0,4.7,52,0.00,,,0.00,WUHU216HW,2013-04-21 00:21:00,
2013-04-20 17:26:00,71.6,53.0,29.82,SW,225,5.4,5.4,52,0.00,,,0.00,WUHU216HW,2013-04-21 00:26:00,
2013-04-20 17:31:00,71.5,52.8,29.82,SW,225,4.0,5.4,52,0.00,,,0.00,WUHU216HW,2013-04-21 00:31:00,
2013-04-20 17:36:00,71.5,52.8,29.82,South,180,3.8,5.4,52,0.00,,,0.00,WUHU216HW,2013-04-21 00:36:00,
2013-04-20 17:41:00,71.8,53.2,29.81,SSW,203,1.3,5.4,52,0.00,,,0.00,WUHU216HW,2013-04-21 00:41:00,
2013-04-20 17:46:00,72.0,53.4,29.82,SSW,203,2.7,3.4,52,0.00,,,0.00,WUHU216HW,2013-04-21 00:46:00,
2013-04-20 17:51:00,72.2,53.0,29.82,SSE,158,5.6,5.6,51,0.00,,,0.00,WUHU216HW,2013-04-21 00:51:00,
2013-04-20 17:56:00,71.6,52.6,29.81,SW,225,4.0,5.6,51,0.00,,,0.00,WUHU216HW,2013-04-21 00:56:00,
2013-04-20 18:01:00,71.5,52.4,29.81,SSE,158,2.0,5.6,51,0.00,,,0.00,WUHU216HW,2013-04-21 01:01:00,
2013-04-20 18:06:00,71.1,52.0,29.81,SW,225,3.1,5.6,51,0.00,,,0.00,WUHU216HW,2013-04-21 01:06:00,
2013-04-20 18:11:00,70.9,51.8,29.81,SSE,158,2.9,3.1,51,0.00,,,0.00,WUHU216HW,2013-04-21 01:11:00,
2013-04-20 18:16:00,70.0,51.0,29.81,SSW,203,2.0,8.7,51,0.00,,,0.00,WUHU216HW,2013-04-21 01:16:00,
2013-04-20 18:21:00,69.7,50.8,29.81,South,180,4.3,8.7,51,0.00,,,0.00,WUHU216HW,2013-04-21 01:21:00,
2013-04-20 18:26:00,68.8,50.0,29.82,NW,315,1.8,6.7,51,0.00,,,0.00,WUHU216HW,2013-04-21 01:26:00,
2013-04-20 18:31:00,68.0,49.8,29.81,South,180,5.1,6.7,52,0.00,,,0.00,WUHU216HW,2013-04-21 01:31:00,
2013-04-20 18:36:00,67.7,50.0,29.82,SSE,158,3.6,6.0,53,0.00,,,0.00,WUHU216HW,2013-04-21 01:36:00,
2013-04-20 18:41:00,68.4,50.6,29.81,South,180,1.6,4.7,53,0.00,,,0.00,WUHU216HW,2013-04-21 01:41:00,
2013-04-20 18:46:00,68.9,51.1,29.82,SSW,203,4.5,4.9,53,0.00,,,0.00,WUHU216HW,2013-04-21 01:46:00,
2013-04-20 18:51:00,69.3,51.0,29.81,SSW,203,3.4,4.9,52,0.00,,,0.00,WUHU216HW,2013-04-21 01:51:00,
2013-04-20 18:56:00,69.5,51.1,29.82,South,180,2.5,3.6,52,0.00,,,0.00,WUHU216HW,2013-04-21 01:56:00,
2013-04-20 19:01:00,69.5,50.6,29.82,SSW,203,3.1,3.8,51,0.00,,,0.00,WUHU216HW,2013-04-21 02:01:00,
2013-04-20 19:06:00,69.1,50.2,29.82,SE,135,2.0,3.8,51,0.00,,,0.00,WUHU216HW,2013-04-21 02:06:00,
2013-04-20 19:11:00,68.4,49.6,29.82,SSE,158,2.9,5.4,51,0.00,,,0.00,WUHU216HW,2013-04-21 02:11:00,
2013-04-20 19:16:00,68.0,49.8,29.82,South,180,1.3,5.4,52,0.00,,,0.00,WUHU216HW,2013-04-21 02:16:00,
2013-04-20 19:21:00,67.9,49.6,29.82,SSE,158,3.4,6.3,52,0.00,,,0.00,WUHU216HW,2013-04-21 02:21:00,
2013-04-20 19:26:00,67.5,49.8,29.82,SSW,203,1.8,6.3,53,0.00,,,0.00,WUHU216HW,2013-04-21 02:26:00,
2013-04-20 19:31:00,67.3,49.2,29.82,SSW,203,2.2,3.6,52,0.00,,,0.00,WUHU216HW,2013-04-21 02:31:00,
2013-04-20 19:36:00,65.9,47.8,29.82,SSW,203,2.5,4.7,52,0.00,,,0.00,WUHU216HW,2013-04-21 02:36:00,
2013-04-20 19:41:00,64.3,47.2,29.82,SSE,158,3.4,4.7,54,0.00,,,0.00,WUHU216HW,2013-04-21 02:41:00,
2013-04-20 19:46:00,62.6,46.2,29.82,SSW,203,1.3,4.9,55,0.00,,,0.00,WUHU216HW,2013-04-21 02:46:00,
2013-04-20 19:51:00,61.9,46.5,29.82,SSE,158,2.7,4.9,57,0.00,,,0.00,WUHU216HW,2013-04-21 02:51:00,
2013-04-20 19:56:00,60.7,45.8,29.82,South,180,2.2,5.8,58,0.00,,,0.00,WUHU216HW,2013-04-21 02:56:00,
2013-04-20 20:01:00,59.9,46.1,29.82,SSW,203,3.4,5.8,60,0.00,,,0.00,WUHU216HW,2013-04-21 03:01:00,
2013-04-20 20:06:00,59.2,45.8,29.82,South,180,3.1,4.5,61,0.00,,,0.00,WUHU216HW,2013-04-21 03:06:00,
2013-04-20 20:11:00,58.7,45.3,29.82,SSE,158,1.1,4.7,61,0.00,,,0.00,WUHU216HW,2013-04-21 03:11:00,
2013-04-20 20:16:00,58.3,45.4,29.83,South,180,1.8,4.7,62,0.00,,,0.00,WUHU216HW,2013-04-21 03:16:00,
2013-04-20 20:21:00,57.8,45.3,29.83,SE,135,1.3,4.7,63,0.00,,,0.00,WUHU216HW,2013-04-21 03:21:00,
2013-04-20 20:26:00,57.2,45.2,29.83,South,180,2.7,4.7,64,0.00,,,0.00,WUHU216HW,2013-04-21 03:26:00,
2013-04-20 20:31:00,57.1,45.0,29.83,SSW,203,3.4,4.7,64,0.00,,,0.00,WUHU216HW,2013-04-21 03:31:00,
2013-04-20 20:36:00,57.1,45.4,29.83,SSE,158,2.2,4.5,65,0.00,,,0.00,WUHU216HW,2013-04-21 03:36:00,
2013-04-20 20:41:00,56.7,45.0,29.83,SSE,158,1.1,4.5,65,0.00,,,0.00,WUHU216HW,2013-04-21 03:41:00,
2013-04-20 20:46:00,56.3,45.1,29.83,SSE,158,1.1,3.6,66,0.00,,,0.00,WUHU216HW,2013-04-21 03:46:00,
2013-04-20 20:51:00,56.2,44.9,29.84,SSE,158,1.8,3.6,66,0.00,,,0.00,WUHU216HW,2013-04-21 03:51:00,
2013-04-20 20:56:00,55.8,45.0,29.84,SE,135,0.7,1.8,67,0.00,,,0.00,WUHU216HW,2013-04-21 03:56:00,
2013-04-20 21:01:00,55.6,45.3,29.84,SE,135,0.4,1.8,68,0.00,,,0.00,WUHU216HW,2013-04-21 04:01:00,
2013-04-20 21:02:00,55.6,45.3,29.84,SE,135,0.4,1.8,68,0.00,,,0.00,WUHU216HW,2013-04-21 04:02:00,
2013-04-20 21:07:00,55.8,45.8,29.84,SE,135,0.7,1.1,69,0.00,,,0.00,WUHU216HW,2013-04-21 04:07:00,
2013-04-20 21:12:00,55.8,45.8,29.84,SE,135,0.9,1.1,69,0.00,,,0.00,WUHU216HW,2013-04-21 04:12:00,
2013-04-20 21:17:00,55.8,45.8,29.84,ESE,113,0.0,1.1,69,0.00,,,0.00,WUHU216HW,2013-04-21 04:17:00,
2013-04-20 21:22:00,55.4,45.5,29.84,East,90,0.7,1.1,69,0.00,,,0.00,WUHU216HW,2013-04-21 04:22:00,
2013-04-20 21:27:00,54.5,45.4,29.84,East,90,0.7,1.1,71,0.00,,,0.00,WUHU216HW,2013-04-21 04:27:00,
2013-04-20 21:32:00,54.0,45.6,29.84,East,90,1.8,1.8,73,0.00,,,0.00,WUHU216HW,2013-04-21 04:32:00,
2013-04-20 21:37:00,53.3,44.5,29.84,East,90,1.8,1.8,72,0.00,,,0.00,WUHU216HW,2013-04-21 04:37:00,
2013-04-20 21:42:00,52.9,45.2,29.84,East,90,0.9,1.8,75,0.00,,,0.00,WUHU216HW,2013-04-21 04:42:00,
2013-04-20 21:47:00,52.7,44.7,29.84,East,90,0.0,1.6,74,0.00,,,0.00,WUHU216HW,2013-04-21 04:47:00,
2013-04-20 21:52:00,52.7,44.7,29.84,East,90,0.4,1.1,74,0.00,,,0.00,WUHU216HW,2013-04-21 04:52:00,
2013-04-20 21:57:00,52.9,44.8,29.84,East,90,0.2,0.9,74,0.00,,,0.00,WUHU216HW,2013-04-21 04:57:00,
2013-04-20 22:02:00,53.1,45.0,29.84,East,90,0.0,0.4,74,0.00,,,0.00,WUHU216HW,2013-04-21 05:02:00,
2013-04-20 22:07:00,53.3,45.2,29.84,East,90,0.0,0.2,74,0.00,,,0.00,WUHU216HW,2013-04-21 05:07:00,
2013-04-20 22:12:00,53.3,45.2,29.84,East,90,0.0,0.2,74,0.00,,,0.00,WUHU216HW,2013-04-21 05:12:00,
2013-04-20 22:17:00,53.5,45.7,29.84,East,90,0.0,0.2,75,0.00,,,0.00,WUHU216HW,2013-04-21 05:17:00,
2013-04-20 22:22:00,53.5,45.4,29.84,East,90,0.0,0.0,74,0.00,,,0.00,WUHU216HW,2013-04-21 05:22:00,
2013-04-20 22:27:00,53.5,45.7,29.84,North,0,0.7,0.7,75,0.00,,,0.00,WUHU216HW,2013-04-21 05:27:00,
2013-04-20 22:32:00,53.3,45.2,29.84,NNW,338,0.0,1.3,74,0.00,,,0.00,WUHU216HW,2013-04-21 05:32:00,
2013-04-20 22:37:00,52.9,44.8,29.84,NNW,338,0.0,1.3,74,0.00,,,0.00,WUHU216HW,2013-04-21 05:37:00,
2013-04-20 22:42:00,52.7,44.7,29.84,NNW,338,0.0,0.4,74,0.00,,,0.00,WUHU216HW,2013-04-21 05:42:00,
2013-04-20 22:47:00,52.6,44.6,29.84,NNW,338,0.0,0.4,74,0.00,,,0.00,WUHU216HW,2013-04-21 05:47:00,
2013-04-20 22:52:00,52.6,44.9,29.84,NNW,338,0.0,0.4,75,0.00,,,0.00,WUHU216HW,2013-04-21 05:52:00,
2013-04-20 22:57:00,52.6,44.9,29.84,NNE,23,0.0,0.0,75,0.00,,,0.00,WUHU216HW,2013-04-21 05:57:00,
2013-04-20 23:02:00,52.7,45.0,29.83,NNE,23,0.0,0.0,75,0.00,,,0.00,WUHU216HW,2013-04-21 06:02:00,
2013-04-20 23:07:00,52.9,45.2,29.83,NNE,23,0.0,0.4,75,0.00,,,0.00,WUHU216HW,2013-04-21 06:07:00,
2013-04-20 23:12:00,52.7,45.0,29.83,NNE,23,0.0,0.4,75,0.00,,,0.00,WUHU216HW,2013-04-21 06:12:00,
2013-04-20 23:17:00,52.6,44.9,29.83,NNE,23,0.0,0.4,75,0.00,,,0.00,WUHU216HW,2013-04-21 06:17:00,
2013-04-20 23:22:00,52.7,45.0,29.83,NNE,23,0.0,0.0,75,0.00,,,0.00,WUHU216HW,2013-04-21 06:22:00,
2013-04-20 23:27:00,52.9,45.2,29.83,NNE,23,0.0,0.0,75,0.00,,,0.00,WUHU216HW,2013-04-21 06:27:00,
2013-04-20 23:32:00,52.9,45.2,29.83,NNE,23,0.0,0.0,75,0.00,,,0.00,WUHU216HW,2013-04-21 06:32:00,
2013-04-20 23:37:00,52.7,45.0,29.83,NNE,23,0.0,0.0,75,0.00,,,0.00,WUHU216HW,2013-04-21 06:37:00,
2013-04-20 23:42:00,52.6,44.9,29.83,NNE,23,0.0,0.0,75,0.00,,,0.00,WUHU216HW,2013-04-21 06:42:00,
2013-04-20 23:47:00,52.6,44.9,29.83,NNE,23,0.0,0.0,75,0.00,,,0.00,WUHU216HW,2013-04-21 06:47:00,
2013-04-20 23:52:00,52.6,44.9,29.83,NNE,23,0.0,0.0,75,0.00,,,0.00,WUHU216HW,2013-04-21 06:52:00,
2013-04-20 23:57:00,52.2,44.6,29.83,NNE,23,0.0,0.4,75,0.00,,,0.00,WUHU216HW,2013-04-21 06:57:00,